• Join FlightAware (Why Join?)
  • Login
  • US Flag 
11:15PM EDT


 

Airport Tracker/Info


-or-


 

Live Flight TrackerFlight Track Log ✈ AWI3722 ✈ 18-Apr-2013 ✈ KPHL - KPWM

Flight Track Log - Related Links

Times and Time Zones

All times are in EDT time to prevent confusion due to time zone crossing. See the AWI3722 flight status page for this flight to view local times or setup timezone preferences in your user account.

Time Position Orientation Groundspeed Altitude Reporting Facility
EDT Latitude Longitude Course Direction KTS MPH feet Rate Location/Type
01:56PM 39.8833 -75.2167 90° East 161 185 700  Level Philadelphia TRACON
01:56PM 39.8736 -75.1925 118° Southeast 186 214 1,500 2,040 Climbing FAA TRACON SMA TRACON (SMA)
01:57PM 39.8700 -75.1731 104° East 182 209 2,300 1,800 Climbing FAA TRACON SMA TRACON (SMA)
01:57PM 39.8678 -75.1508 97° East 207 238 2,700 1,620 Climbing FAA TRACON SMA TRACON (SMA)
01:57PM 39.8647 -75.1211 98° East 220 253 3,400 1,800 Climbing FAA TRACON SMA TRACON (SMA)
01:58PM 39.8064 -74.8154 105° East  Level FlightAware Approximate
01:58PM 39.8639 -75.0933 92° East 244 281 3,900  Level FAA TRACON SMA TRACON (SMA)
01:58PM 39.8625 -75.0678 94° East 250 288 4,400 1,920 Climbing FAA TRACON SMA TRACON (SMA)
01:58PM 39.8594 -75.0281 96° East 270 311 5,200 2,100 Climbing FAA TRACON SMA TRACON (SMA)
01:59PM 39.7884 -74.6746 75° East  Level FlightAware Approximate
01:59PM 39.8531 -74.9997 106° East 283 326 5,800  Level FAA TRACON SMA TRACON (SMA)
01:59PM 39.8472 -74.9694 104° East 277 319 6,600 2,700 Climbing FAA TRACON SMA TRACON (SMA)
01:59PM 39.8389 -74.9319 106° East 282 325 7,600 2,400 Climbing FAA TRACON SMA TRACON (SMA)
02:00PM 39.8000 -74.5309 90° East  Level FlightAware Approximate
02:00PM 39.8336 -74.9058 105° East 284 327 8,200  Level FAA TRACON SMA TRACON (SMA)
02:00PM 39.8167 -74.8300 106° East 297 342 10,000 2,460 Climbing FAA TRACON SMA TRACON (SMA)
02:01PM 39.8167 -74.3960 90° East  Level FlightAware Approximate
02:01PM 39.8125 -74.7964 99° East 311 358 10,700  Level FAA TRACON SMA TRACON (SMA)
02:01PM 39.8208 -74.7642 71° East 298 343 11,500 2,220 Climbing FAA TRACON SMA TRACON (SMA)
02:01PM 39.8467 -74.7353 41° Northeast 317 365 12,200 1,800 Climbing FAA TRACON SMA TRACON (SMA)
02:02PM 39.8667 -74.7117 42° Northeast 328 377 12,700 1,800 Climbing FAA TRACON SMA TRACON (SMA)
02:02PM 39.8881 -74.6875 41° Northeast 328 377 13,400 2,100 Climbing FAA TRACON SMA TRACON (SMA)
02:02PM 39.9158 -74.6567 40° Northeast 331 381 14,100 1,320 Climbing FAA TRACON SMA TRACON (SMA)
02:03PM 39.9372 -74.6308 43° Northeast 339 390 14,300 1,020 Climbing FAA TRACON SMA TRACON (SMA)
02:03PM 39.9594 -74.6036 43° Northeast 360 414 14,800 2,040 Climbing FAA TRACON SMA TRACON (SMA)
02:03PM 39.9856 -74.5700 45° Northeast 362 417 15,700 2,520 Climbing FAA TRACON SMA TRACON (SMA)
02:04PM 40.0086 -74.5417 43° Northeast 354 407 16,500 2,460 Climbing FAA TRACON SMA TRACON (SMA)
02:04PM 40.0322 -74.5169 39° Northeast 348 400 17,300 1,800 Climbing FAA TRACON SMA TRACON (SMA)
02:04PM 40.0583 -74.4856 43° Northeast 343 395 17,700 660 Climbing FAA TRACON SMA TRACON (SMA)
02:05PM 40.0872 -74.4539 40° Northeast 348 400 18,000 1,260 Climbing FAA TRACON SMA TRACON (SMA)
02:07PM 40.2422 -74.2978 38° Northeast 359 413 20,800 1,560 Climbing New York Center
02:08PM 40.3236 -74.2203 36° Northeast 359 413 22,300 1,200 Climbing New York Center
02:09PM 40.4053 -74.1369 38° Northeast 364 419 23,200 900 Climbing New York Center
02:10PM 40.4869 -74.0511 39° Northeast 369 425 24,200 960 Climbing New York Center
02:11PM 40.5725 -73.9678 36° Northeast 375 432 25,200 840 Climbing New York Center
02:12PM 40.6625 -73.8789 37° Northeast 380 437 26,000 840 Climbing New York Center
02:13PM 40.7769 -73.8047 26° Northeast 394 453 26,900 480 Climbing New York Center
02:14PM 40.8786 -73.7325 28° Northeast 404 465 27,000  Climbing New York Center
02:16PM 41.1131 -73.5697 28° Northeast 411 473 27,000  Level Boston Center
02:17PM 41.2258 -73.5494 North 406 467 27,000  Level Boston Center
02:18PM 41.3428 -73.5267 North 406 467 27,000  Level Boston Center
02:19PM 41.4533 -73.5064 North 408 470 27,000  Level Boston Center
02:20PM 41.5556 -73.4858 North 408 470 27,000  Level Boston Center
02:21PM 41.6683 -73.4600 10° North 408 470 27,000  Level Boston Center
02:22PM 41.7811 -73.4394 North 408 470 27,000  Level Boston Center
02:23PM 41.8961 -73.4161 North 408 470 27,000  Level Boston Center
02:24PM 42.0086 -73.3928 North 408 470 27,000  Level Boston Center
02:25PM 42.1383 -73.3611 10° North 413 475 27,000  Level Boston Center
02:26PM 42.2383 -73.3486 North 406 467 27,000  Level Boston Center
02:27PM 42.3286 -73.2517 38° Northeast 386 444 27,000  Level Boston Center
02:28PM 42.4108 -73.1036 53° Northeast 408 470 27,000  Level Boston Center
02:29PM 42.4783 -72.9750 55° Northeast 408 470 27,000  Level Boston Center
02:30PM 42.5497 -72.8431 54° Northeast 418 481 27,000  Level Boston Center
02:31PM 42.6208 -72.7194 52° Northeast 418 481 27,000  Level Boston Center
02:32PM 42.6942 -72.5983 50° Northeast 418 481 27,000  Level Boston Center
02:33PM 42.7631 -72.4683 54° Northeast 423 487 27,000  Level Boston Center
02:34PM 42.8339 -72.3411 53° Northeast 423 487 27,000 -480 Level Boston Center
02:35PM 42.8983 -72.2106 56° Northeast 410 472 26,100 -1,440 Descending Boston Center
02:36PM 42.9689 -72.0797 54° Northeast 410 472 24,100 -2,040 Descending Boston Center
02:37PM 43.0392 -71.9514 53° Northeast 410 472 22,100 -1,800 Descending Boston Center
02:38PM 43.1114 -71.8117 55° Northeast 422 486 20,600 -1,800 Descending Boston Center
02:39PM 43.1836 -71.6769 54° Northeast 438 504 18,600 -1,740 Descending Boston Center
02:40PM 43.2472 -71.5564 54° Northeast 433 498 17,100 -1,800 Descending Boston Center
02:41PM 43.3231 -71.4128 54° Northeast 428 493 15,000 -2,100 Descending Boston Center
02:42PM 43.3886 -71.2886 54° Northeast 418 481 12,900 -1,980 Descending Boston Center
02:43PM 43.4458 -71.1761 55° Northeast 404 465 11,000 -960 Descending Boston Center
02:44PM 43.4942 -71.0264 66° East 384 442 11,000 -420 Level Boston Center
02:45PM 43.5281 -70.9022 69° East 379 436 10,200 -1,140 Descending Boston Center
02:46PM 43.5639 -70.7869 67° East 341 392 8,800 -2,040 Descending Boston Center
02:47PM 43.6017 -70.6653 67° East 312 359 6,100 -2,340 Descending Boston Center
02:48PM 43.6461 -70.5836 53° Northeast 297 342 4,100 -1,440 Descending Boston Center
02:49PM 43.6594 -70.4972 78° East 240 276 3,300 -1,200 Descending Boston Center
02:50PM 43.6542 -70.4428 98° East 170 196 1,800 -1,200 Descending Boston Center
02:51PM 43.6511 -70.3828 94° East 140 161 1,000 4,560 Descending Boston Center
02:52PM 43.6481 -70.3369 95° East 140 161 11,000 4,920 Climbing Boston Center
02:53PM 43.6450 -70.2825 94° East 140 161 11,000  Level Boston Center
02:54PM 43.6442 -70.2308 91° East 140 161 11,000  Level Boston Center
02:55PM 43.6431 -70.1822 92° East 140 161 11,000  Level Boston Center
02:56PM 43.6422 -70.1306 91° East 140 161 11,000  Level Boston Center
02:57PM 43.6422 -70.1306 55° Northeast 140 161 11,000  Level Boston Center